Latest Weather Observations for Fawkner Beacon

IDV60901

Issued at 9:21 am EST Saturday 1 August 2015 (issued every 10 minutes, with the page automatically refreshed every 10 minutes)

About weather observations | Map of Melbourne area stations | Latest observations for Melbourne area | Other Formats
Station Details ID: 086376 Name: FAWKNER BEACON Lat: -37.91 Lon: 144.93 Height: 17.0 m
Data from the previous 72 hours. | See also: Recent months for locations in Victoria
Date/Time
EST
Tmp

°C
App
Tmp
°C
Dew
Point
°C
Rel
Hum
%
Delta-T

°C
Wind Press
QNH
hPa
Press
MSL
hPa
Rain
since
9 am
mm
Dir
 
Spd
km/h
Gust
km/h
Spd
kts
Gust
kts
01/09:00am - - - - - SSW 28 33 15 18 - - -
01/08:53am - - - - - SSW 35 50 19 27 - - -
01/08:49am - - - - - SW 39 50 21 27 - - -
01/08:30am - - - - - WSW 37 44 20 24 - - -
01/08:20am - - - - - W 30 46 16 25 - - -
01/08:00am - - - - - NW 24 30 13 16 - - -
01/07:30am - - - - - NNW 30 35 16 19 - - -
01/07:00am - - - - - NNW 41 48 22 26 - - -
01/06:30am - - - - - N 50 57 27 31 - - -
01/06:00am - - - - - NNW 46 61 25 33 - - -
01/05:30am - - - - - NNW 48 59 26 32 - - -
01/05:00am - - - - - NNW 54 67 29 36 - - -
01/04:30am - - - - - NNW 61 72 33 39 - - -
01/04:00am - - - - - NNW 57 78 31 42 - - -
01/03:57am - - - - - NNW 57 78 31 42 - - -
01/03:30am - - - - - NNW 63 76 34 41 - - -
01/03:00am - - - - - N 65 83 35 45 - - -
01/02:58am - - - - - N 63 83 34 45 - - -
01/02:30am - - - - - N 59 72 32 39 - - -
01/02:00am - - - - - N 52 65 28 35 - - -
01/01:30am - - - - - N 44 57 24 31 - - -
01/01:00am - - - - - NNW 44 54 24 29 - - -
01/12:30am - - - - - N 37 46 20 25 - - -
01/12:00am - - - - - N 35 46 19 25 - - -
 
Date/Time
EST
Tmp

°C
App
Tmp
°C
Dew
Point
°C
Rel
Hum
%
Delta-T

°C
Wind Press
QNH
hPa
Press
MSL
hPa
Rain
since
9 am
mm
Dir
 
Spd
km/h
Gust
km/h
Spd
kts
Gust
kts
31/11:30pm - - - - - N 43 52 23 28 - - -
31/11:00pm - - - - - N 43 50 23 27 - - -
31/10:30pm - - - - - N 41 48 22 26 - - -
31/10:00pm - - - - - NNW 33 41 18 22 - - -
31/09:30pm - - - - - NNW 32 46 17 25 - - -
31/09:00pm - - - - - NW 32 39 17 21 - - -
31/08:30pm - - - - - NNW 39 46 21 25 - - -
31/08:00pm - - - - - NNW 43 54 23 29 - - -
31/07:30pm - - - - - N 37 46 20 25 - - -
31/07:00pm - - - - - NNW 37 46 20 25 - - -
31/06:30pm - - - - - NNW 33 43 18 23 - - -
31/06:00pm - - - - - NNW 32 39 17 21 - - -
31/05:30pm - - - - - NNW 37 44 20 24 - - -
31/05:00pm - - - - - NNW 35 44 19 24 - - -
31/04:30pm - - - - - NNW 33 43 18 23 - - -
31/04:00pm - - - - - N 26 33 14 18 - - -
31/03:30pm - - - - - N 28 32 15 17 - - -
31/03:00pm - - - - - N 13 17 7 9 - - -
31/02:30pm - - - - - CALM 0 0 0 0 - - -
31/02:00pm - - - - - CALM 0 0 0 0 - - -
31/01:30pm - - - - - W 2 6 1 3 - - -
31/01:00pm - - - - - W 7 9 4 5 - - -
31/12:30pm - - - - - W 7 9 4 5 - - -
31/12:00pm - - - - - W 9 11 5 6 - - -
31/11:30am - - - - - NW 6 7 3 4 - - -
31/11:00am - - - - - NW 7 11 4 6 - - -
31/10:30am - - - - - NW 11 15 6 8 - - -
31/10:00am - - - - - NW 11 13 6 7 - - -
31/09:30am - - - - - NNW 13 17 7 9 - - -
31/09:00am - - - - - NNW 15 17 8 9 - - -
31/08:30am - - - - - WNW 17 20 9 11 - - -
31/08:00am - - - - - WNW 19 24 10 13 - - -
31/07:30am - - - - - W 20 26 11 14 - - -
31/07:00am - - - - - W 17 22 9 12 - - -
31/06:30am - - - - - W 19 22 10 12 - - -
31/06:00am - - - - - W 17 20 9 11 - - -
31/05:30am - - - - - W 19 22 10 12 - - -
31/05:00am - - - - - W 22 26 12 14 - - -
31/04:30am - - - - - WSW 22 24 12 13 - - -
31/04:00am - - - - - WSW 22 26 12 14 - - -
31/03:30am - - - - - WSW 26 32 14 17 - - -
31/03:00am - - - - - WSW 24 30 13 16 - - -
31/02:30am - - - - - WSW 28 35 15 19 - - -
31/02:00am - - - - - WSW 26 30 14 16 - - -
31/01:30am - - - - - W 26 30 14 16 - - -
31/01:00am - - - - - W 28 32 15 17 - - -
31/12:30am - - - - - W 24 30 13 16 - - -
31/12:00am - - - - - W 20 26 11 14 - - -
 
Date/Time
EST
Tmp

°C
App
Tmp
°C
Dew
Point
°C
Rel
Hum
%
Delta-T

°C
Wind Press
QNH
hPa
Press
MSL
hPa
Rain
since
9 am
mm
Dir
 
Spd
km/h
Gust
km/h
Spd
kts
Gust
kts
30/11:30pm - - - - - W 26 32 14 17 - - -
30/11:00pm - - - - - W 26 33 14 18 - - -
30/10:30pm - - - - - W 24 30 13 16 - - -
30/10:00pm - - - - - WNW 26 32 14 17 - - -
30/09:30pm - - - - - W 26 39 14 21 - - -
30/09:00pm - - - - - WNW 32 44 17 24 - - -
30/08:45pm - - - - - NW 43 61 23 33 - - -
30/08:30pm - - - - - NW 46 61 25 33 - - -
30/08:19pm - - - - - NW 52 70 28 38 - - -
30/08:00pm - - - - - NW 61 76 33 41 - - -
30/07:30pm - - - - - NNW 65 80 35 43 - - -
30/07:10pm - - - - - NNW 65 87 35 47 - - -
30/07:00pm - - - - - NNW 63 78 34 42 - - -
30/06:30pm - - - - - NNW 65 82 35 44 - - -
30/06:07pm - - - - - NNW 57 76 31 41 - - -
30/06:00pm - - - - - NW 52 63 28 34 - - -
30/05:30pm - - - - - NW 50 67 27 36 - - -
30/05:00pm - - - - - NNW 57 78 31 42 - - -
30/04:44pm - - - - - NNW 61 80 33 43 - - -
30/04:30pm - - - - - NNW 59 70 32 38 - - -
30/04:01pm - - - - - NNW 57 76 31 41 - - -
30/04:00pm - - - - - NNW 59 76 32 41 - - -
30/03:31pm - - - - - NNW 50 70 27 38 - - -
30/03:30pm - - - - - NNW 50 63 27 34 - - -
30/03:00pm - - - - - N 39 48 21 26 - - -
30/02:50pm - - - - - N 43 61 23 33 - - -
30/02:30pm - - - - - N 52 65 28 35 - - -
30/02:00pm - - - - - N 57 76 31 41 - - -
30/01:33pm - - - - - N 61 80 33 43 - - -
30/01:30pm - - - - - N 59 70 32 38 - - -
30/01:00pm - - - - - N 54 65 29 35 - - -
30/12:30pm - - - - - N 50 63 27 34 - - -
30/12:00pm - - - - - N 59 70 32 38 - - -
30/11:44am - - - - - N 54 72 29 39 - - -
30/11:30am - - - - - N 52 67 28 36 - - -
30/11:07am - - - - - N 52 72 28 39 - - -
30/11:00am - - - - - N 54 70 29 38 - - -
30/10:30am - - - - - N 61 83 33 45 - - -
30/10:27am - - - - - N 57 76 31 41 - - -
30/10:00am - - - - - N 48 65 26 35 - - -
30/09:30am - - - - - NNW 57 69 31 37 - - -
30/09:00am - - - - - N 52 65 28 35 - - -
30/08:30am - - - - - N 52 67 28 36 - - -
30/08:00am - - - - - N 41 50 22 27 - - -
30/07:30am - - - - - N 43 50 23 27 - - -
30/07:00am - - - - - NNW 46 57 25 31 - - -
30/06:30am - - - - - NNW 46 57 25 31 - - -
30/06:00am - - - - - N 43 54 23 29 - - -
30/05:30am - - - - - N 43 54 23 29 - - -
30/05:00am - - - - - NNW 46 57 25 31 - - -
30/04:30am - - - - - NNW 44 52 24 28 - - -
30/04:00am - - - - - NNW 43 52 23 28 - - -
30/03:30am - - - - - N 39 44 21 24 - - -
30/03:00am - - - - - N 39 46 21 25 - - -
30/02:30am - - - - - N 39 46 21 25 - - -
30/02:00am - - - - - N 37 46 20 25 - - -
30/01:30am - - - - - N 33 41 18 22 - - -
30/01:00am - - - - - N 35 43 19 23 - - -
30/12:30am - - - - - N 37 44 20 24 - - -
30/12:00am - - - - - N 33 41 18 22 - - -
 
Date/Time
EST
Tmp

°C
App
Tmp
°C
Dew
Point
°C
Rel
Hum
%
Delta-T

°C
Wind Press
QNH
hPa
Press
MSL
hPa
Rain
since
9 am
mm
Dir
 
Spd
km/h
Gust
km/h
Spd
kts
Gust
kts
29/11:30pm - - - - - N 33 39 18 21 - - -
29/11:00pm - - - - - NNW 32 39 17 21 - - -
29/10:30pm - - - - - N 33 41 18 22 - - -
29/10:00pm - - - - - N 32 39 17 21 - - -
29/09:30pm - - - - - N 30 35 16 19 - - -
29/09:00pm - - - - - N 30 39 16 21 - - -
29/08:30pm - - - - - N 30 35 16 19 - - -
29/08:00pm - - - - - N 32 41 17 22 - - -
29/07:30pm - - - - - N 30 35 16 19 - - -
29/07:00pm - - - - - N 37 44 20 24 - - -
29/06:30pm - - - - - N 33 41 18 22 - - -
29/06:00pm - - - - - N 35 41 19 22 - - -
29/05:30pm - - - - - N 37 43 20 23 - - -
29/05:00pm - - - - - N 35 41 19 22 - - -
29/04:30pm - - - - - N 32 39 17 21 - - -
29/04:00pm - - - - - N 33 41 18 22 - - -
29/03:30pm - - - - - N 30 35 16 19 - - -
29/03:00pm - - - - - N 33 41 18 22 - - -
29/02:30pm - - - - - N 32 39 17 21 - - -
29/02:00pm - - - - - NNW 32 41 17 22 - - -
29/01:30pm - - - - - NNW 28 33 15 18 - - -
29/01:00pm - - - - - NNW 26 30 14 16 - - -
29/12:30pm - - - - - N 20 26 11 14 - - -
29/12:00pm - - - - - NNW 17 22 9 12 - - -
29/11:30am - - - - - NNW 11 13 6 7 - - -
29/11:00am - - - - - NNW 15 17 8 9 - - -
29/10:30am - - - - - N 15 17 8 9 - - -
29/10:00am - - - - - NNW 17 20 9 11 - - -
29/09:30am - - - - - N 17 20 9 11 - - -

Latest Capital City Observations: Canberra | Sydney | Melbourne | Brisbane | Adelaide | Perth | Hobart | Darwin

Other Formats:

Comma delimited format used in spreadsheet applications
http://www.bom.gov.au/fwo/IDV60901/IDV60901.95872.axf

JavaScript Object Notation format (JSON) in row-major order
http://www.bom.gov.au/fwo/IDV60901/IDV60901.95872.json